Time;durP1;ratioP1;P1;durP2;ratioP2;P2;SDS_P1;SDS_P2;PMS_P1;PMS_P2;Temp;Humidity;BMP_temperature;BMP_pressure;BME280_temperature;BME280_humidity;BME280_pressure;Samples;Min_cycle;Max_cycle;Signal;HPM_P1;HPM_P2
2023/06/30 00:00:12;;;;;;;3.25;2.58;;;;;;;;;;5031287;28;20017;-84
2023/06/30 00:02:40;;;;;;;4.63;2.50;;;;;;;;;;5025567;28;20045;-85
2023/06/30 00:05:05;;;;;;;3.70;2.70;;;;;;;;;;5034838;28;20033;-83
2023/06/30 00:07:31;;;;;;;3.30;2.35;;;;;;;;;;5036936;28;20041;-85
2023/06/30 00:09:56;;;;;;;4.20;2.58;;;;;;;;;;5041795;28;20030;-84
2023/06/30 00:12:22;;;;;;;3.58;2.45;;;;;;;;;;5030244;28;20105;-85
2023/06/30 00:14:47;;;;;;;4.78;2.55;;;;;;;;;;5032557;28;20037;-84
2023/06/30 00:17:13;;;;;;;3.00;2.30;;;;;;;;;;5036745;28;20045;-84
2023/06/30 00:19:38;;;;;;;5.18;2.50;;;;;;;;;;5024718;28;20022;-85
2023/06/30 00:22:04;;;;;;;3.70;2.60;;;;;;;;;;5037052;28;20449;-84
2023/06/30 00:24:29;;;;;;;3.83;2.70;;;;;;;;;;5047289;28;20025;-84
2023/06/30 00:26:55;;;;;;;3.42;2.45;;;;;;;;;;5035280;28;20056;-85
2023/06/30 00:29:20;;;;;;;5.40;2.72;;;;;;;;;;5039308;28;20031;-84
2023/06/30 00:31:46;;;;;;;4.32;2.50;;;;;;;;;;5040981;28;20029;-84
2023/06/30 00:34:11;;;;;;;5.97;2.50;;;;;;;;;;5052444;28;20037;-84
2023/06/30 00:36:37;;;;;;;6.72;2.83;;;;;;;;;;5031627;28;20048;-85
2023/06/30 00:39:02;;;;;;;4.10;2.50;;;;;;;;;;5038742;28;20030;-84
2023/06/30 00:41:28;;;;;;;4.35;2.80;;;;;;;;;;5030557;28;20148;-84
2023/06/30 00:43:53;;;;;;;3.58;2.40;;;;;;;;;;5030893;28;20022;-84
2023/06/30 00:46:19;;;;;;;3.50;2.42;;;;;;;;;;5030996;28;20033;-84
2023/06/30 00:48:45;;;;;;;3.30;2.38;;;;;;;;;;5014973;28;20026;-85
2023/06/30 00:51:12;;;;;;;4.03;2.45;;;;;;;;;;5029041;28;20029;-84
2023/06/30 00:53:38;;;;;;;5.60;2.55;;;;;;;;;;5033338;28;20029;-84
2023/06/30 00:56:04;;;;;;;3.72;2.47;;;;;;;;;;5031150;28;20036;-85
2023/06/30 00:58:29;;;;;;;5.43;2.63;;;;;;;;;;5047171;28;20423;-86
2023/06/30 01:01:28;;;;;;;4.15;2.70;;;;;;;;;;5029778;28;20037;-86
2023/06/30 01:04:16;;;;;;;4.20;2.60;;;;;;;;;;5001849;28;20290;-86
2023/06/30 01:07:01;;;;;;;5.55;2.67;;;;;;;;;;5045670;28;20037;-87
2023/06/30 01:09:32;;;;;;;5.05;2.50;;;;;;;;;;5033510;28;20444;-85
2023/06/30 01:11:59;;;;;;;3.95;2.70;;;;;;;;;;5034595;28;20034;-84
2023/06/30 01:14:28;;;;;;;4.07;2.80;;;;;;;;;;5039962;28;20030;-83
2023/06/30 01:16:54;;;;;;;3.35;2.60;;;;;;;;;;5047474;28;20048;-84
2023/06/30 01:19:37;;;;;;;7.40;3.13;;;;;;;;;;5036589;28;20046;-86
2023/06/30 01:22:09;;;;;;;3.88;2.60;;;;;;;;;;5037977;28;20040;-84
2023/06/30 01:24:36;;;;;;;5.65;2.65;;;;;;;;;;5036988;28;20091;-85
2023/06/30 01:27:02;;;;;;;5.28;2.80;;;;;;;;;;5030320;28;20037;-85
2023/06/30 01:29:30;;;;;;;4.30;2.80;;;;;;;;;;5030211;28;20029;-84
2023/06/30 01:31:58;;;;;;;4.10;2.70;;;;;;;;;;5021175;28;20029;-86
2023/06/30 01:34:24;;;;;;;4.07;2.60;;;;;;;;;;5038450;28;20042;-85
2023/06/30 01:36:49;;;;;;;3.13;2.50;;;;;;;;;;5035327;28;20035;-83
2023/06/30 01:39:15;;;;;;;4.55;3.00;;;;;;;;;;5032666;28;20034;-83
2023/06/30 01:41:43;;;;;;;6.88;2.97;;;;;;;;;;5021317;28;20026;-84
2023/06/30 01:44:08;;;;;;;4.55;2.70;;;;;;;;;;5012729;28;20475;-84
2023/06/30 01:46:34;;;;;;;4.32;2.90;;;;;;;;;;5028858;28;20037;-84
2023/06/30 01:49:00;;;;;;;4.25;2.60;;;;;;;;;;5022244;28;20034;-84
2023/06/30 01:51:25;;;;;;;3.85;2.47;;;;;;;;;;5036840;28;20030;-83
2023/06/30 01:53:51;;;;;;;3.85;2.50;;;;;;;;;;5025268;28;20117;-84
2023/06/30 01:56:16;;;;;;;3.95;2.70;;;;;;;;;;5019371;28;20026;-83
2023/06/30 01:58:42;;;;;;;3.90;2.50;;;;;;;;;;5020203;28;20101;-82
2023/06/30 02:01:08;;;;;;;4.60;2.85;;;;;;;;;;5022743;28;20049;-83
2023/06/30 02:03:33;;;;;;;5.03;2.58;;;;;;;;;;5019925;28;20022;-83
2023/06/30 02:05:59;;;;;;;5.10;2.90;;;;;;;;;;5021559;28;20093;-83
2023/06/30 02:08:24;;;;;;;4.22;2.78;;;;;;;;;;5024549;28;20037;-83
2023/06/30 02:10:50;;;;;;;3.17;2.30;;;;;;;;;;5024205;28;20032;-84
2023/06/30 02:13:16;;;;;;;3.45;2.50;;;;;;;;;;5023390;28;20487;-86
2023/06/30 02:15:41;;;;;;;3.58;2.67;;;;;;;;;;5036476;28;20034;-82
2023/06/30 02:18:06;;;;;;;4.82;2.60;;;;;;;;;;5024241;28;20491;-84
2023/06/30 02:20:32;;;;;;;3.65;2.78;;;;;;;;;;5022007;28;20502;-83
2023/06/30 02:22:58;;;;;;;3.65;2.70;;;;;;;;;;5011165;28;20029;-83
2023/06/30 02:25:23;;;;;;;3.83;2.55;;;;;;;;;;5035362;28;20112;-86
2023/06/30 02:27:52;;;;;;;5.68;2.63;;;;;;;;;;5032508;28;20495;-83
2023/06/30 02:30:17;;;;;;;5.28;2.90;;;;;;;;;;5022124;28;20061;-83
2023/06/30 02:32:44;;;;;;;4.30;2.90;;;;;;;;;;5026440;28;20411;-84
2023/06/30 02:35:12;;;;;;;5.68;2.90;;;;;;;;;;5030283;28;20037;-84
2023/06/30 02:37:37;;;;;;;5.03;2.85;;;;;;;;;;5030055;28;20383;-82
2023/06/30 02:40:04;;;;;;;5.43;3.47;;;;;;;;;;5037349;28;20038;-87
2023/06/30 02:42:30;;;;;;;6.00;3.13;;;;;;;;;;5028896;28;20097;-85
2023/06/30 02:44:55;;;;;;;5.38;3.65;;;;;;;;;;5041992;28;20065;-85
2023/06/30 02:47:21;;;;;;;4.65;3.60;;;;;;;;;;5049737;28;20368;-83
2023/06/30 02:49:47;;;;;;;6.55;3.92;;;;;;;;;;5021315;28;20025;-84
2023/06/30 02:52:12;;;;;;;6.22;3.90;;;;;;;;;;5042968;28;20037;-84
2023/06/30 02:54:38;;;;;;;7.63;4.30;;;;;;;;;;5036537;28;20033;-83
2023/06/30 02:57:05;;;;;;;7.35;4.07;;;;;;;;;;5032862;28;20030;-83
2023/06/30 02:59:31;;;;;;;7.38;4.20;;;;;;;;;;5037630;28;20361;-82
2023/06/30 03:01:56;;;;;;;5.97;4.22;;;;;;;;;;5010914;28;20511;-83
2023/06/30 03:04:22;;;;;;;6.55;4.30;;;;;;;;;;5020835;28;20400;-84
2023/06/30 03:06:49;;;;;;;8.05;4.60;;;;;;;;;;5023573;28;20117;-83
2023/06/30 03:09:15;;;;;;;7.07;4.57;;;;;;;;;;5022192;28;20041;-85
2023/06/30 03:11:40;;;;;;;6.30;4.13;;;;;;;;;;5008747;28;20663;-85
2023/06/30 03:14:06;;;;;;;9.10;4.45;;;;;;;;;;5025588;28;20068;-83
2023/06/30 03:16:41;;;;;;;7.60;4.50;;;;;;;;;;5025671;28;20029;-84
2023/06/30 03:19:06;;;;;;;7.55;4.50;;;;;;;;;;5023925;28;20030;-84
2023/06/30 03:21:32;;;;;;;7.15;4.03;;;;;;;;;;5021995;28;20040;-83
2023/06/30 03:23:57;;;;;;;7.03;4.20;;;;;;;;;;5041441;28;20091;-84
2023/06/30 03:26:23;;;;;;;7.07;4.70;;;;;;;;;;5029283;28;20579;-83
2023/06/30 03:28:48;;;;;;;9.63;5.10;;;;;;;;;;5027223;28;20038;-83
2023/06/30 03:31:14;;;;;;;7.30;4.80;;;;;;;;;;5035450;28;20037;-82
2023/06/30 03:33:40;;;;;;;7.90;4.55;;;;;;;;;;5027031;28;20037;-84
2023/06/30 03:36:07;;;;;;;10.02;4.68;;;;;;;;;;5025013;28;20029;-82
2023/06/30 03:38:32;;;;;;;8.30;5.00;;;;;;;;;;5034404;28;20079;-84
2023/06/30 03:40:58;;;;;;;9.07;5.45;;;;;;;;;;5035081;28;20121;-84
2023/06/30 03:43:26;;;;;;;7.97;5.25;;;;;;;;;;5039577;28;20030;-83
2023/06/30 03:45:52;;;;;;;9.43;5.30;;;;;;;;;;5040435;28;20065;-85
2023/06/30 03:48:18;;;;;;;7.93;4.97;;;;;;;;;;5029876;28;20045;-85
2023/06/30 03:50:44;;;;;;;7.32;4.60;;;;;;;;;;5035973;28;20037;-84
2023/06/30 03:53:09;;;;;;;7.13;4.70;;;;;;;;;;5016365;28;20045;-83
2023/06/30 03:55:35;;;;;;;6.40;4.28;;;;;;;;;;5036584;28;20033;-84
2023/06/30 03:58:02;;;;;;;7.68;4.90;;;;;;;;;;5025059;28;20456;-83
2023/06/30 04:00:31;;;;;;;6.93;4.97;;;;;;;;;;5033587;28;20065;-83
2023/06/30 04:02:56;;;;;;;8.18;4.88;;;;;;;;;;5018457;28;20097;-83
2023/06/30 04:05:22;;;;;;;7.57;4.90;;;;;;;;;;5018914;28;20064;-82
2023/06/30 04:07:47;;;;;;;7.72;4.80;;;;;;;;;;5019814;28;20084;-82
2023/06/30 04:10:13;;;;;;;7.10;4.60;;;;;;;;;;5033167;28;20480;-85
2023/06/30 04:12:38;;;;;;;7.13;4.68;;;;;;;;;;5020209;28;20444;-84
2023/06/30 04:15:07;;;;;;;6.65;4.97;;;;;;;;;;5021788;28;20042;-83
2023/06/30 04:17:32;;;;;;;7.35;5.30;;;;;;;;;;5023635;28;20495;-83
2023/06/30 04:19:58;;;;;;;10.40;5.15;;;;;;;;;;5022596;28;20052;-84
2023/06/30 04:22:23;;;;;;;9.68;5.05;;;;;;;;;;5021496;28;20045;-83
2023/06/30 04:24:49;;;;;;;10.35;5.20;;;;;;;;;;5021586;28;20511;-83
2023/06/30 04:27:14;;;;;;;7.82;5.05;;;;;;;;;;5039270;28;20038;-83
2023/06/30 04:29:40;;;;;;;9.63;5.03;;;;;;;;;;5026849;28;20025;-83
2023/06/30 04:32:05;;;;;;;7.43;4.85;;;;;;;;;;5031709;28;20034;-83
2023/06/30 04:34:31;;;;;;;7.72;5.13;;;;;;;;;;5037799;28;20042;-87
2023/06/30 04:36:56;;;;;;;8.32;5.10;;;;;;;;;;5027339;28;20116;-85
2023/06/30 04:39:22;;;;;;;6.97;4.88;;;;;;;;;;5032239;28;20034;-84
2023/06/30 04:41:47;;;;;;;7.95;5.13;;;;;;;;;;5036074;28;20025;-84
2023/06/30 04:44:13;;;;;;;12.10;4.93;;;;;;;;;;5037428;28;20375;-87
2023/06/30 04:46:38;;;;;;;25.27;5.30;;;;;;;;;;5036727;28;20033;-87
2023/06/30 04:49:04;;;;;;;11.63;4.80;;;;;;;;;;5027515;28;20041;-87
2023/06/30 04:51:30;;;;;;;12.30;4.82;;;;;;;;;;5031444;28;20029;-85
2023/06/30 04:53:55;;;;;;;9.88;4.80;;;;;;;;;;5041562;28;20065;-85
2023/06/30 04:56:20;;;;;;;8.45;4.90;;;;;;;;;;5037761;28;20434;-84
2023/06/30 04:58:50;;;;;;;6.32;4.75;;;;;;;;;;5055429;28;20040;-83
2023/06/30 05:01:15;;;;;;;7.82;4.95;;;;;;;;;;5038060;28;20052;-83
2023/06/30 05:03:41;;;;;;;6.70;4.80;;;;;;;;;;5025213;28;20037;-84
2023/06/30 05:06:06;;;;;;;8.30;5.35;;;;;;;;;;5027595;28;20045;-81
2023/06/30 05:08:32;;;;;;;11.57;5.20;;;;;;;;;;5024053;28;20070;-86
2023/06/30 05:10:57;;;;;;;7.43;5.13;;;;;;;;;;5022804;28;20048;-84
2023/06/30 05:13:25;;;;;;;8.93;5.47;;;;;;;;;;5022965;28;20033;-86
2023/06/30 05:15:51;;;;;;;9.02;5.18;;;;;;;;;;5024138;28;20095;-83
2023/06/30 05:18:16;;;;;;;8.63;5.60;;;;;;;;;;5002502;28;20053;-84
2023/06/30 05:20:42;;;;;;;8.50;4.72;;;;;;;;;;5020685;28;20399;-84
2023/06/30 05:23:07;;;;;;;7.68;5.35;;;;;;;;;;5021733;28;20029;-84
2023/06/30 05:25:32;;;;;;;7.43;4.88;;;;;;;;;;5020979;28;20105;-86
2023/06/30 05:27:58;;;;;;;8.00;5.05;;;;;;;;;;5019121;28;20487;-83
2023/06/30 05:30:23;;;;;;;8.55;4.88;;;;;;;;;;5024061;28;20093;-82
2023/06/30 05:32:49;;;;;;;7.97;5.10;;;;;;;;;;5023825;28;20034;-83
2023/06/30 05:35:14;;;;;;;7.68;5.38;;;;;;;;;;5022079;28;20044;-85
2023/06/30 05:37:40;;;;;;;7.15;4.93;;;;;;;;;;5026297;28;20030;-85
2023/06/30 05:40:05;;;;;;;8.55;5.22;;;;;;;;;;5027123;28;20361;-82
2023/06/30 05:42:31;;;;;;;8.68;5.35;;;;;;;;;;5028883;28;20033;-84
2023/06/30 05:44:56;;;;;;;8.68;5.20;;;;;;;;;;5032816;28;20522;-86
2023/06/30 05:47:22;;;;;;;7.90;5.07;;;;;;;;;;5037354;28;20056;-84
2023/06/30 05:49:47;;;;;;;9.52;5.80;;;;;;;;;;5034121;28;20041;-85
2023/06/30 05:52:13;;;;;;;8.25;5.28;;;;;;;;;;5027783;28;20030;-84
2023/06/30 05:54:38;;;;;;;8.45;5.40;;;;;;;;;;5025457;28;20489;-83
2023/06/30 05:57:04;;;;;;;8.20;5.18;;;;;;;;;;5027871;28;20026;-84
2023/06/30 05:59:30;;;;;;;7.72;5.00;;;;;;;;;;5031227;28;20057;-84
2023/06/30 06:01:56;;;;;;;7.05;4.97;;;;;;;;;;5023404;28;20111;-85
2023/06/30 06:04:22;;;;;;;7.18;5.15;;;;;;;;;;5036069;28;20057;-85
2023/06/30 06:06:47;;;;;;;9.65;4.80;;;;;;;;;;5039254;28;20429;-86
2023/06/30 06:09:13;;;;;;;8.52;4.90;;;;;;;;;;5031123;28;20060;-86
2023/06/30 06:11:39;;;;;;;10.43;5.30;;;;;;;;;;5026377;28;20522;-86
2023/06/30 06:14:04;;;;;;;7.90;5.45;;;;;;;;;;5027949;28;20424;-85
2023/06/30 06:16:30;;;;;;;9.10;5.68;;;;;;;;;;5024009;28;20038;-87
2023/06/30 06:18:55;;;;;;;11.25;5.50;;;;;;;;;;5024002;28;20068;-87
2023/06/30 06:21:26;;;;;;;8.93;5.70;;;;;;;;;;5040037;28;20488;-84
2023/06/30 06:23:51;;;;;;;8.15;5.78;;;;;;;;;;5038957;28;20123;-86
2023/06/30 06:26:17;;;;;;;9.70;6.20;;;;;;;;;;5028352;28;20467;-85
2023/06/30 06:28:42;;;;;;;9.80;6.15;;;;;;;;;;5027907;28;20498;-85
2023/06/30 06:31:09;;;;;;;11.43;6.40;;;;;;;;;;5021074;28;20104;-86
2023/06/30 06:33:35;;;;;;;9.85;6.22;;;;;;;;;;5036308;28;20400;-83
2023/06/30 06:36:01;;;;;;;9.55;5.90;;;;;;;;;;5022841;28;20120;-85
2023/06/30 06:38:26;;;;;;;9.38;6.22;;;;;;;;;;5020565;28;20559;-86
2023/06/30 06:40:52;;;;;;;10.02;6.03;;;;;;;;;;5021434;28;20041;-87
2023/06/30 06:43:17;;;;;;;10.40;6.80;;;;;;;;;;5020647;28;20036;-85
2023/06/30 06:45:45;;;;;;;9.57;6.20;;;;;;;;;;5021797;28;20071;-86
2023/06/30 06:48:23;;;;;;;9.30;6.30;;;;;;;;;;5025961;28;20025;-88
2023/06/30 06:50:57;;;;;;;9.02;5.93;;;;;;;;;;5035372;28;20072;-86
2023/06/30 06:53:33;;;;;;;9.88;6.32;;;;;;;;;;5025208;28;20072;-84
2023/06/30 06:55:59;;;;;;;8.35;6.05;;;;;;;;;;5023459;28;20037;-85
2023/06/30 06:58:28;;;;;;;9.45;6.18;;;;;;;;;;5023574;28;20189;-86
2023/06/30 07:00:54;;;;;;;9.73;5.78;;;;;;;;;;5026322;28;20045;-85
2023/06/30 07:03:19;;;;;;;9.75;6.10;;;;;;;;;;5028296;28;20036;-86
2023/06/30 07:05:45;;;;;;;8.38;5.97;;;;;;;;;;5027077;28;20450;-85
2023/06/30 07:08:12;;;;;;;9.10;6.18;;;;;;;;;;5021417;28;20057;-85
2023/06/30 07:10:37;;;;;;;8.63;5.70;;;;;;;;;;5024339;28;20034;-85
2023/06/30 07:13:03;;;;;;;11.70;5.70;;;;;;;;;;5028098;28;20154;-85
2023/06/30 07:15:29;;;;;;;8.50;4.72;;;;;;;;;;5032691;28;20048;-85
2023/06/30 07:17:55;;;;;;;7.28;4.70;;;;;;;;;;5035165;28;20037;-85
2023/06/30 07:20:21;;;;;;;8.07;4.68;;;;;;;;;;5040597;28;20387;-85
2023/06/30 07:22:47;;;;;;;9.05;5.10;;;;;;;;;;5022152;28;20037;-84
2023/06/30 07:25:13;;;;;;;11.25;4.90;;;;;;;;;;5031579;28;20042;-85
2023/06/30 07:27:38;;;;;;;7.05;4.65;;;;;;;;;;5025636;28;20088;-83
2023/06/30 07:30:07;;;;;;;8.60;5.45;;;;;;;;;;5025675;28;20034;-85
2023/06/30 07:32:33;;;;;;;8.73;4.80;;;;;;;;;;5025287;28;20507;-85
2023/06/30 07:35:01;;;;;;;10.15;5.13;;;;;;;;;;5019169;28;20038;-83
2023/06/30 07:37:27;;;;;;;6.45;4.82;;;;;;;;;;5038226;28;20037;-83
2023/06/30 07:39:52;;;;;;;5.93;4.40;;;;;;;;;;5023990;28;20065;-86
2023/06/30 07:42:18;;;;;;;6.72;4.47;;;;;;;;;;5025845;28;20030;-87
2023/06/30 07:44:43;;;;;;;8.48;5.60;;;;;;;;;;5025209;28;20044;-87
2023/06/30 07:47:09;;;;;;;9.10;6.07;;;;;;;;;;5033110;28;20040;-87
2023/06/30 07:49:34;;;;;;;11.40;6.15;;;;;;;;;;5027015;28;20061;-87
2023/06/30 07:52:00;;;;;;;10.43;6.57;;;;;;;;;;5029055;28;20041;-88
2023/06/30 07:54:25;;;;;;;12.20;6.95;;;;;;;;;;5028517;28;20073;-84
2023/06/30 07:56:51;;;;;;;9.68;6.85;;;;;;;;;;5028199;28;20563;-84
2023/06/30 07:59:16;;;;;;;10.90;7.05;;;;;;;;;;5030691;28;20044;-86
2023/06/30 08:01:42;;;;;;;13.05;6.70;;;;;;;;;;5031989;28;20042;-88
2023/06/30 08:04:07;;;;;;;12.30;6.50;;;;;;;;;;5041674;28;20050;-86
2023/06/30 08:06:32;;;;;;;13.00;6.20;;;;;;;;;;5045907;28;20034;-86
2023/06/30 08:08:58;;;;;;;8.93;6.20;;;;;;;;;;5031493;28;20041;-86
2023/06/30 08:11:25;;;;;;;9.68;6.32;;;;;;;;;;5030339;28;20065;-87
2023/06/30 08:13:51;;;;;;;11.55;5.93;;;;;;;;;;5032473;28;20112;-83
2023/06/30 08:16:17;;;;;;;15.57;6.43;;;;;;;;;;5032800;28;20443;-84
2023/06/30 08:18:43;;;;;;;9.38;5.55;;;;;;;;;;5028916;28;20033;-85
2023/06/30 08:21:08;;;;;;;9.55;5.43;;;;;;;;;;5040188;28;20033;-84
2023/06/30 08:23:34;;;;;;;7.55;5.47;;;;;;;;;;5014712;28;20144;-84
2023/06/30 08:25:59;;;;;;;9.65;6.20;;;;;;;;;;5043557;28;20045;-85
2023/06/30 08:28:25;;;;;;;10.43;6.15;;;;;;;;;;5016401;28;20037;-83
2023/06/30 08:30:50;;;;;;;9.05;6.07;;;;;;;;;;5009022;28;20141;-84
2023/06/30 08:33:16;;;;;;;12.40;6.95;;;;;;;;;;5028554;28;20029;-84
2023/06/30 08:35:41;;;;;;;13.25;6.53;;;;;;;;;;5022527;28;20041;-85
2023/06/30 08:38:07;;;;;;;9.60;6.60;;;;;;;;;;5018338;28;20041;-85
2023/06/30 08:40:32;;;;;;;9.88;6.40;;;;;;;;;;5021936;28;20092;-86
2023/06/30 08:42:59;;;;;;;11.18;6.63;;;;;;;;;;5025279;28;20476;-84
2023/06/30 08:45:28;;;;;;;11.40;7.05;;;;;;;;;;5023890;28;20807;-86
2023/06/30 08:47:57;;;;;;;13.75;6.60;;;;;;;;;;5027619;28;20079;-86
2023/06/30 08:50:24;;;;;;;12.32;7.45;;;;;;;;;;5031523;28;20041;-84
2023/06/30 08:52:50;;;;;;;10.40;6.63;;;;;;;;;;5018641;28;20069;-84
2023/06/30 08:55:15;;;;;;;11.05;6.80;;;;;;;;;;5013146;28;20400;-84
2023/06/30 08:57:41;;;;;;;11.45;6.90;;;;;;;;;;5014297;28;20048;-85
2023/06/30 09:00:07;;;;;;;11.70;6.57;;;;;;;;;;5013282;28;20034;-84
2023/06/30 09:02:34;;;;;;;10.20;7.05;;;;;;;;;;5019055;28;20064;-85
2023/06/30 09:05:01;;;;;;;10.93;6.63;;;;;;;;;;5030133;28;20084;-86
2023/06/30 09:07:28;;;;;;;11.65;7.00;;;;;;;;;;5016502;28;20111;-86
2023/06/30 09:09:56;;;;;;;9.70;6.53;;;;;;;;;;5014989;28;20129;-82
2023/06/30 09:12:23;;;;;;;11.25;6.78;;;;;;;;;;5022902;28;20033;-86
2023/06/30 09:14:53;;;;;;;9.70;6.30;;;;;;;;;;5022554;28;20029;-85
2023/06/30 09:17:18;;;;;;;10.27;6.00;;;;;;;;;;5024388;28;20044;-87
2023/06/30 09:19:44;;;;;;;9.57;6.13;;;;;;;;;;5024055;28;20041;-86
2023/06/30 09:22:11;;;;;;;9.63;6.63;;;;;;;;;;5029507;28;20025;-87
2023/06/30 09:24:36;;;;;;;10.30;6.35;;;;;;;;;;5025287;28;20395;-86
2023/06/30 09:27:02;;;;;;;9.38;6.25;;;;;;;;;;5016076;28;20034;-86
2023/06/30 09:29:33;;;;;;;9.93;5.90;;;;;;;;;;5018213;28;20119;-87
2023/06/30 09:32:03;;;;;;;9.07;6.00;;;;;;;;;;5014679;28;20033;-87
2023/06/30 09:34:29;;;;;;;9.20;5.47;;;;;;;;;;5029931;28;20073;-86
2023/06/30 09:36:55;;;;;;;8.95;5.60;;;;;;;;;;5033229;28;20087;-85
2023/06/30 09:39:22;;;;;;;8.15;5.28;;;;;;;;;;5035784;28;20029;-87
2023/06/30 09:41:49;;;;;;;9.05;5.72;;;;;;;;;;5029545;28;20047;-85
2023/06/30 09:44:17;;;;;;;8.75;5.10;;;;;;;;;;5031051;28;20028;-87
2023/06/30 09:46:52;;;;;;;8.75;5.55;;;;;;;;;;5018750;28;20039;-86
2023/06/30 09:49:30;;;;;;;10.88;5.50;;;;;;;;;;5044529;28;20042;-89
2023/06/30 09:51:57;;;;;;;7.82;5.03;;;;;;;;;;5037174;28;20065;-87
2023/06/30 09:54:23;;;;;;;8.30;5.40;;;;;;;;;;5031179;28;20060;-86
2023/06/30 09:57:05;;;;;;;11.55;5.78;;;;;;;;;;5034332;28;20038;-85
2023/06/30 09:59:32;;;;;;;8.50;5.72;;;;;;;;;;5034154;28;20047;-86
2023/06/30 10:01:58;;;;;;;8.32;5.57;;;;;;;;;;5022581;28;20045;-87
2023/06/30 10:04:25;;;;;;;8.50;5.90;;;;;;;;;;5034133;28;20029;-86
2023/06/30 10:06:54;;;;;;;9.48;5.90;;;;;;;;;;5034581;28;20434;-88
2023/06/30 10:09:23;;;;;;;9.55;5.40;;;;;;;;;;5033596;28;20415;-85
2023/06/30 10:11:51;;;;;;;10.35;6.30;;;;;;;;;;5026887;28;20396;-86
2023/06/30 10:14:19;;;;;;;11.52;5.63;;;;;;;;;;5026946;28;20183;-86
2023/06/30 10:16:47;;;;;;;10.85;6.03;;;;;;;;;;5020099;28;20597;-85
2023/06/30 10:19:14;;;;;;;9.98;6.20;;;;;;;;;;5032045;28;20108;-85
2023/06/30 10:21:40;;;;;;;10.93;6.15;;;;;;;;;;5042777;28;20041;-86
2023/06/30 10:24:07;;;;;;;9.90;6.20;;;;;;;;;;5022304;28;20034;-85
2023/06/30 10:26:36;;;;;;;8.55;5.50;;;;;;;;;;5019943;28;20037;-86
2023/06/30 10:29:03;;;;;;;10.70;6.80;;;;;;;;;;5032655;28;20057;-85
2023/06/30 10:31:28;;;;;;;9.57;5.80;;;;;;;;;;5027825;28;20037;-87
2023/06/30 10:33:54;;;;;;;9.40;5.65;;;;;;;;;;5034320;28;20029;-87
2023/06/30 10:36:20;;;;;;;8.30;5.88;;;;;;;;;;5021644;28;20458;-85
2023/06/30 10:38:46;;;;;;;10.32;6.30;;;;;;;;;;5035145;28;20115;-85
2023/06/30 10:41:21;;;;;;;10.57;6.53;;;;;;;;;;5031717;28;20112;-87
2023/06/30 10:44:02;;;;;;;7.63;5.63;;;;;;;;;;5049633;28;20049;-86
2023/06/30 10:46:49;;;;;;;8.70;6.45;;;;;;;;;;5031596;28;20468;-86
2023/06/30 10:49:17;;;;;;;13.40;6.57;;;;;;;;;;5033328;28;20038;-86
2023/06/30 10:51:49;;;;;;;13.25;7.07;;;;;;;;;;5031046;28;20049;-83
2023/06/30 10:54:25;;;;;;;12.23;6.28;;;;;;;;;;5024564;28;20025;-83
2023/06/30 10:57:02;;;;;;;10.27;5.60;;;;;;;;;;5031266;28;20026;-83
2023/06/30 10:59:35;;;;;;;14.07;6.95;;;;;;;;;;5034005;28;20029;-81
2023/06/30 11:02:11;;;;;;;;;;;;;;;;;;5026381;28;20037;-82
2023/06/30 11:04:37;;;;;;;11.02;7.00;;;;;;;;;;5019541;28;20000;-82
2023/06/30 11:07:05;;;;;;;10.13;6.70;;;;;;;;;;5023877;28;20021;-85
2023/06/30 11:09:46;;;;;;;8.55;6.63;;;;;;;;;;5026700;28;20077;-82
2023/06/30 11:12:14;;;;;;;9.73;6.90;;;;;;;;;;5024877;28;20041;-84
2023/06/30 11:14:59;;;;;;;9.55;6.38;;;;;;;;;;5031473;28;20033;-84
2023/06/30 11:17:26;;;;;;;11.35;6.53;;;;;;;;;;5034225;28;20040;-84
2023/06/30 11:20:09;;;;;;;9.95;6.53;;;;;;;;;;5018422;28;20476;-83
2023/06/30 11:22:34;;;;;;;9.65;6.45;;;;;;;;;;5037375;28;20037;-82
2023/06/30 11:25:09;;;;;;;10.10;6.53;;;;;;;;;;5025579;28;20507;-82
2023/06/30 11:27:35;;;;;;;10.65;6.68;;;;;;;;;;5026424;28;20039;-83
2023/06/30 11:30:01;;;;;;;10.35;6.80;;;;;;;;;;5029991;28;20105;-84
2023/06/30 11:32:27;;;;;;;11.88;7.07;;;;;;;;;;5034883;28;20124;-83
2023/06/30 11:34:55;;;;;;;9.38;6.78;;;;;;;;;;5029886;28;20086;-83
2023/06/30 11:37:20;;;;;;;10.00;7.28;;;;;;;;;;5020827;28;20052;-83
2023/06/30 11:39:57;;;;;;;11.10;6.90;;;;;;;;;;5027972;28;20045;-81
2023/06/30 11:42:23;;;;;;;10.10;6.90;;;;;;;;;;5025385;28;20039;-84
2023/06/30 11:44:49;;;;;;;12.40;6.63;;;;;;;;;;5029130;28;20029;-83
2023/06/30 11:47:18;;;;;;;9.75;7.25;;;;;;;;;;5030982;28;20060;-84
2023/06/30 11:49:48;;;;;;;12.55;7.05;;;;;;;;;;5033542;28;20049;-84
2023/06/30 11:52:15;;;;;;;11.23;7.93;;;;;;;;;;5019872;28;20037;-82
2023/06/30 11:54:41;;;;;;;10.18;7.10;;;;;;;;;;5022114;28;20049;-83
2023/06/30 11:57:08;;;;;;;11.48;7.70;;;;;;;;;;5026998;28;20033;-84
2023/06/30 11:59:34;;;;;;;10.98;7.10;;;;;;;;;;5035818;28;20048;-84
2023/06/30 12:02:00;;;;;;;9.45;6.47;;;;;;;;;;5028957;28;20046;-84
2023/06/30 12:04:26;;;;;;;10.02;7.00;;;;;;;;;;5021264;28;20068;-82
2023/06/30 12:06:54;;;;;;;7.85;5.57;;;;;;;;;;5019244;28;20048;-84
2023/06/30 12:09:20;;;;;;;11.50;5.00;;;;;;;;;;5020565;28;20454;-85
2023/06/30 12:11:46;;;;;;;10.52;5.85;;;;;;;;;;5023001;28;20110;-83
2023/06/30 12:14:14;;;;;;;12.63;7.00;;;;;;;;;;5029921;28;20047;-85
2023/06/30 12:16:51;;;;;;;11.27;7.05;;;;;;;;;;5030083;28;20038;-86
2023/06/30 12:19:22;;;;;;;9.50;6.47;;;;;;;;;;5032497;28;20033;-85
2023/06/30 12:21:54;;;;;;;10.98;7.03;;;;;;;;;;5023360;28;20534;-85
2023/06/30 12:24:21;;;;;;;11.15;7.15;;;;;;;;;;5037429;28;20030;-84
2023/06/30 12:26:48;;;;;;;11.13;7.30;;;;;;;;;;5038978;28;20047;-84
2023/06/30 12:29:16;;;;;;;10.52;7.13;;;;;;;;;;5035776;28;20025;-86
2023/06/30 12:31:42;;;;;;;9.48;6.63;;;;;;;;;;5030303;28;20032;-86
2023/06/30 12:34:08;;;;;;;11.48;6.95;;;;;;;;;;5026951;28;20037;-87
2023/06/30 12:36:33;;;;;;;11.40;6.45;;;;;;;;;;5023298;28;20053;-86
2023/06/30 12:38:59;;;;;;;10.68;6.75;;;;;;;;;;5024585;28;20056;-86
2023/06/30 12:41:24;;;;;;;10.70;6.60;;;;;;;;;;5022718;28;20099;-84
2023/06/30 12:43:50;;;;;;;9.88;6.57;;;;;;;;;;5038726;28;20033;-85
2023/06/30 12:46:16;;;;;;;9.02;6.47;;;;;;;;;;5029482;28;20739;-84
2023/06/30 12:48:41;;;;;;;11.48;7.47;;;;;;;;;;5035544;28;20040;-86
2023/06/30 12:51:07;;;;;;;13.38;7.18;;;;;;;;;;5034863;28;20566;-84
2023/06/30 12:53:33;;;;;;;12.07;7.57;;;;;;;;;;5035843;28;20034;-85
2023/06/30 12:55:59;;;;;;;12.25;7.25;;;;;;;;;;5024365;28;20083;-85
2023/06/30 12:58:25;;;;;;;10.38;6.57;;;;;;;;;;5027425;28;20125;-87
2023/06/30 13:00:56;;;;;;;7.47;5.80;;;;;;;;;;5027767;28;20507;-88
2023/06/30 13:03:22;;;;;;;11.93;5.85;;;;;;;;;;5046596;28;20119;-82
2023/06/30 13:05:47;;;;;;;9.82;5.75;;;;;;;;;;5033469;28;20445;-85
2023/06/30 13:08:13;;;;;;;9.82;6.60;;;;;;;;;;5024109;28;20033;-87
2023/06/30 13:10:38;;;;;;;8.15;5.80;;;;;;;;;;5032961;28;20038;-87
2023/06/30 13:13:04;;;;;;;11.18;6.05;;;;;;;;;;5028061;28;20038;-87
2023/06/30 13:15:29;;;;;;;10.80;6.00;;;;;;;;;;5025119;28;20399;-88
2023/06/30 13:17:55;;;;;;;9.82;6.40;;;;;;;;;;5023861;28;20036;-87
2023/06/30 13:20:21;;;;;;;9.77;6.03;;;;;;;;;;5020617;28;20029;-88
2023/06/30 13:22:47;;;;;;;9.55;6.35;;;;;;;;;;5033065;28;20060;-86
2023/06/30 13:25:13;;;;;;;11.60;7.22;;;;;;;;;;5023444;28;20034;-85
2023/06/30 13:27:40;;;;;;;9.45;6.30;;;;;;;;;;5018184;28;20044;-86
2023/06/30 13:30:06;;;;;;;9.52;6.50;;;;;;;;;;5022483;28;20038;-87
2023/06/30 13:32:32;;;;;;;10.55;6.38;;;;;;;;;;5027315;28;20069;-85
2023/06/30 13:34:57;;;;;;;10.32;6.30;;;;;;;;;;5029335;28;20021;-86
2023/06/30 13:37:22;;;;;;;9.02;6.07;;;;;;;;;;5033353;28;20040;-85
2023/06/30 13:39:48;;;;;;;9.23;6.35;;;;;;;;;;5035488;28;20418;-86
2023/06/30 13:42:14;;;;;;;11.63;6.75;;;;;;;;;;5020496;28;20050;-82
2023/06/30 13:44:39;;;;;;;13.30;7.78;;;;;;;;;;5024481;28;20065;-87
2023/06/30 13:47:05;;;;;;;10.75;7.00;;;;;;;;;;5018508;28;20038;-86
2023/06/30 13:49:31;;;;;;;9.73;7.20;;;;;;;;;;5025977;28;20466;-86
2023/06/30 13:51:56;;;;;;;8.73;6.45;;;;;;;;;;5032359;28;20072;-86
2023/06/30 13:54:23;;;;;;;9.77;7.20;;;;;;;;;;5036915;28;20033;-89
2023/06/30 13:56:48;;;;;;;10.40;6.93;;;;;;;;;;5037037;28;20080;-88
2023/06/30 13:59:14;;;;;;;13.55;8.27;;;;;;;;;;5037259;28;20034;-88
2023/06/30 14:01:40;;;;;;;13.13;8.07;;;;;;;;;;5035277;28;20057;-84
2023/06/30 14:04:06;;;;;;;10.93;7.78;;;;;;;;;;5025916;28;20065;-85
2023/06/30 14:06:32;;;;;;;11.43;7.88;;;;;;;;;;5029193;28;20037;-86
2023/06/30 14:08:58;;;;;;;11.75;7.47;;;;;;;;;;5030978;28;20387;-84
2023/06/30 14:11:23;;;;;;;9.98;7.60;;;;;;;;;;5036060;28;20451;-84
2023/06/30 14:13:49;;;;;;;11.80;7.88;;;;;;;;;;5029466;28;20137;-84
2023/06/30 14:16:14;;;;;;;11.35;7.47;;;;;;;;;;5036891;28;20042;-82
2023/06/30 14:18:40;;;;;;;12.65;7.68;;;;;;;;;;5028426;28;20046;-83
2023/06/30 14:21:05;;;;;;;10.00;7.25;;;;;;;;;;5034296;28;20407;-85
2023/06/30 14:23:31;;;;;;;9.70;6.80;;;;;;;;;;5034188;28;20623;-84
2023/06/30 14:25:56;;;;;;;10.55;7.55;;;;;;;;;;5042018;28;20132;-83
2023/06/30 14:28:22;;;;;;;9.93;7.22;;;;;;;;;;5028055;28;20034;-83
2023/06/30 14:30:48;;;;;;;11.45;7.32;;;;;;;;;;5025097;28;20066;-85
2023/06/30 14:33:14;;;;;;;11.88;7.35;;;;;;;;;;5030090;28;20041;-86
2023/06/30 14:35:39;;;;;;;11.30;7.35;;;;;;;;;;5012183;28;20406;-86